sensor_id;sensor_type;location;lat;lon;timestamp;pressure;altitude;pressure_sealevel;temperature;humidity
68873;BME280;55907;50.806;12.882;2024-03-17T00:01:44;980.1;;;4.6;75.3
68873;BME280;55907;50.806;12.882;2024-03-17T00:04:45;980.1;;;4.6;75.1
68873;BME280;55907;50.806;12.882;2024-03-17T00:07:46;980.1;;;4.6;75.0
68873;BME280;55907;50.806;12.882;2024-03-17T00:10:50;980.1;;;4.6;74.8
68873;BME280;55907;50.806;12.882;2024-03-17T00:13:48;980.2;;;4.6;74.9
68873;BME280;55907;50.806;12.882;2024-03-17T00:16:48;980.2;;;4.6;74.5
68873;BME280;55907;50.806;12.882;2024-03-17T00:19:49;980.1;;;4.6;74.5
68873;BME280;55907;50.806;12.882;2024-03-17T00:22:50;980.2;;;4.7;74.6
68873;BME280;55907;50.806;12.882;2024-03-17T00:25:51;980.2;;;4.7;74.5
68873;BME280;55907;50.806;12.882;2024-03-17T00:28:51;980.2;;;4.8;74.2
68873;BME280;55907;50.806;12.882;2024-03-17T00:34:53;980.1;;;4.9;73.7
68873;BME280;55907;50.806;12.882;2024-03-17T00:37:54;980.1;;;4.9;73.3
68873;BME280;55907;50.806;12.882;2024-03-17T00:40:55;980.2;;;4.9;73.6
68873;BME280;55907;50.806;12.882;2024-03-17T00:43:55;980.2;;;4.9;73.5
68873;BME280;55907;50.806;12.882;2024-03-17T00:46:56;980.2;;;4.9;73.1
68873;BME280;55907;50.806;12.882;2024-03-17T00:49:57;980.1;;;4.9;73.3
68873;BME280;55907;50.806;12.882;2024-03-17T00:52:58;980.1;;;4.9;73.0
68873;BME280;55907;50.806;12.882;2024-03-17T00:55:58;980.1;;;5.0;72.7
68873;BME280;55907;50.806;12.882;2024-03-17T00:58:59;980.1;;;5.0;72.9
68873;BME280;55907;50.806;12.882;2024-03-17T01:02:00;980.1;;;5.0;72.6
68873;BME280;55907;50.806;12.882;2024-03-17T01:08:02;980.1;;;4.9;72.6
68873;BME280;55907;50.806;12.882;2024-03-17T01:11:03;980.1;;;4.9;72.6
68873;BME280;55907;50.806;12.882;2024-03-17T01:14:03;980.1;;;5.0;72.7
68873;BME280;55907;50.806;12.882;2024-03-17T01:20:05;980.1;;;5.0;72.6
68873;BME280;55907;50.806;12.882;2024-03-17T01:23:05;980.1;;;5.0;72.7
68873;BME280;55907;50.806;12.882;2024-03-17T01:35:09;980.1;;;5.0;unknown
68873;BME280;55907;50.806;12.882;2024-03-17T01:38:09;980.0;;;5.0;72.7
68873;BME280;55907;50.806;12.882;2024-03-17T01:41:10;980.0;;;5.0;72.8
68873;BME280;55907;50.806;12.882;2024-03-17T01:47:12;980.0;;;4.9;72.6
68873;BME280;55907;50.806;12.882;2024-03-17T01:50:13;980.0;;;4.9;72.8
68873;BME280;55907;50.806;12.882;2024-03-17T01:53:14;980.0;;;4.8;73.0
68873;BME280;55907;50.806;12.882;2024-03-17T01:56:15;980.0;;;4.8;72.7
68873;BME280;55907;50.806;12.882;2024-03-17T01:59:15;980.0;;;4.8;72.5
68873;BME280;55907;50.806;12.882;2024-03-17T02:02:16;980.0;;;4.8;73.0
68873;BME280;55907;50.806;12.882;2024-03-17T02:05:16;980.0;;;4.8;72.8
68873;BME280;55907;50.806;12.882;2024-03-17T02:08:17;980.0;;;4.7;72.7
68873;BME280;55907;50.806;12.882;2024-03-17T02:11:25;980.0;;;4.7;72.8
68873;BME280;55907;50.806;12.882;2024-03-17T02:14:19;980.0;;;4.7;72.5
68873;BME280;55907;50.806;12.882;2024-03-17T02:17:20;980.0;;;4.6;73.1
68873;BME280;55907;50.806;12.882;2024-03-17T02:20:20;980.0;;;4.6;72.9
68873;BME280;55907;50.806;12.882;2024-03-17T02:23:21;980.1;;;4.6;73.2
68873;BME280;55907;50.806;12.882;2024-03-17T02:26:23;980.0;;;4.6;73.3
68873;BME280;55907;50.806;12.882;2024-03-17T02:29:23;980.0;;;4.7;73.2
68873;BME280;55907;50.806;12.882;2024-03-17T02:32:23;980.0;;;4.7;73.7
68873;BME280;55907;50.806;12.882;2024-03-17T02:35:24;980.0;;;4.7;72.7
68873;BME280;55907;50.806;12.882;2024-03-17T02:38:25;979.9;;;4.7;72.6
68873;BME280;55907;50.806;12.882;2024-03-17T02:41:26;980.0;;;4.8;73.4
68873;BME280;55907;50.806;12.882;2024-03-17T02:44:27;979.9;;;4.9;73.0
68873;BME280;55907;50.806;12.882;2024-03-17T02:47:27;980.0;;;4.9;72.5
68873;BME280;55907;50.806;12.882;2024-03-17T02:53:29;980.0;;;4.9;72.1
68873;BME280;55907;50.806;12.882;2024-03-17T02:56:30;980.0;;;4.9;72.3
68873;BME280;55907;50.806;12.882;2024-03-17T02:59:31;980.0;;;5.0;72.5
68873;BME280;55907;50.806;12.882;2024-03-17T03:02:31;980.0;;;5.0;72.9
68873;BME280;55907;50.806;12.882;2024-03-17T03:05:32;980.0;;;5.0;73.5
68873;BME280;55907;50.806;12.882;2024-03-17T03:08:33;980.0;;;5.0;72.7
68873;BME280;55907;50.806;12.882;2024-03-17T03:11:34;979.9;;;5.0;72.8
68873;BME280;55907;50.806;12.882;2024-03-17T03:14:35;979.9;;;4.9;72.2
68873;BME280;55907;50.806;12.882;2024-03-17T03:17:35;980.0;;;4.9;71.9
68873;BME280;55907;50.806;12.882;2024-03-17T03:23:37;980.0;;;4.9;72.5
68873;BME280;55907;50.806;12.882;2024-03-17T03:26:38;979.9;;;4.9;72.6
68873;BME280;55907;50.806;12.882;2024-03-17T03:29:39;979.9;;;5.0;72.0
68873;BME280;55907;50.806;12.882;2024-03-17T03:32:39;979.9;;;5.0;72.2
68873;BME280;55907;50.806;12.882;2024-03-17T03:35:40;979.9;;;5.0;71.9
68873;BME280;55907;50.806;12.882;2024-03-17T03:38:41;979.9;;;5.0;72.0
68873;BME280;55907;50.806;12.882;2024-03-17T03:41:42;979.8;;;5.0;72.3
68873;BME280;55907;50.806;12.882;2024-03-17T03:44:42;979.8;;;5.0;71.9
68873;BME280;55907;50.806;12.882;2024-03-17T03:47:43;979.8;;;4.9;72.1
68873;BME280;55907;50.806;12.882;2024-03-17T03:50:44;979.9;;;4.9;72.4
68873;BME280;55907;50.806;12.882;2024-03-17T03:53:45;979.9;;;4.9;72.0
68873;BME280;55907;50.806;12.882;2024-03-17T03:56:46;979.9;;;4.8;72.2
68873;BME280;55907;50.806;12.882;2024-03-17T03:59:46;979.9;;;4.9;72.5
68873;BME280;55907;50.806;12.882;2024-03-17T04:02:49;979.9;;;4.7;72.6
68873;BME280;55907;50.806;12.882;2024-03-17T04:05:48;980.0;;;4.7;73.0
68873;BME280;55907;50.806;12.882;2024-03-17T04:08:49;980.0;;;4.7;73.1
68873;BME280;55907;50.806;12.882;2024-03-17T04:11:49;980.0;;;4.7;73.6
68873;BME280;55907;50.806;12.882;2024-03-17T04:14:50;979.9;;;4.6;73.5
68873;BME280;55907;50.806;12.882;2024-03-17T04:17:51;979.9;;;4.7;73.6
68873;BME280;55907;50.806;12.882;2024-03-17T04:20:52;979.9;;;4.8;73.6
68873;BME280;55907;50.806;12.882;2024-03-17T04:23:53;979.9;;;4.7;73.4
68873;BME280;55907;50.806;12.882;2024-03-17T04:26:54;979.9;;;4.8;73.7
68873;BME280;55907;50.806;12.882;2024-03-17T04:29:56;979.9;;;4.8;74.0
68873;BME280;55907;50.806;12.882;2024-03-17T04:32:55;979.9;;;4.8;73.3
68873;BME280;55907;50.806;12.882;2024-03-17T04:35:56;979.9;;;4.9;73.2
68873;BME280;55907;50.806;12.882;2024-03-17T04:38:57;979.9;;;4.9;73.5
68873;BME280;55907;50.806;12.882;2024-03-17T04:41:57;979.9;;;4.9;73.6
68873;BME280;55907;50.806;12.882;2024-03-17T04:44:58;980.0;;;4.9;73.9
68873;BME280;55907;50.806;12.882;2024-03-17T04:47:59;980.0;;;4.9;74.2
68873;BME280;55907;50.806;12.882;2024-03-17T04:51:00;980.0;;;4.8;74.8
68873;BME280;55907;50.806;12.882;2024-03-17T04:54:01;980.0;;;4.8;74.3
68873;BME280;55907;50.806;12.882;2024-03-17T04:57:02;980.1;;;4.7;74.4
68873;BME280;55907;50.806;12.882;2024-03-17T05:00:03;980.1;;;4.6;74.4
68873;BME280;55907;50.806;12.882;2024-03-17T05:03:04;980.1;;;4.6;74.4
68873;BME280;55907;50.806;12.882;2024-03-17T05:06:05;980.1;;;4.6;74.2
68873;BME280;55907;50.806;12.882;2024-03-17T05:09:05;980.2;;;4.7;74.7
68873;BME280;55907;50.806;12.882;2024-03-17T05:12:06;980.2;;;4.7;74.3
68873;BME280;55907;50.806;12.882;2024-03-17T05:15:07;980.2;;;4.7;73.9
68873;BME280;55907;50.806;12.882;2024-03-17T05:18:07;980.2;;;4.7;73.6
68873;BME280;55907;50.806;12.882;2024-03-17T05:21:08;980.2;;;4.7;73.7
68873;BME280;55907;50.806;12.882;2024-03-17T05:24:09;980.2;;;4.7;73.7
68873;BME280;55907;50.806;12.882;2024-03-17T05:27:10;980.2;;;4.8;73.6
68873;BME280;55907;50.806;12.882;2024-03-17T05:30:11;980.2;;;4.8;73.3
68873;BME280;55907;50.806;12.882;2024-03-17T05:33:11;980.3;;;4.8;73.5
68873;BME280;55907;50.806;12.882;2024-03-17T05:36:12;980.3;;;4.8;73.6
68873;BME280;55907;50.806;12.882;2024-03-17T05:39:13;980.3;;;4.8;73.1
68873;BME280;55907;50.806;12.882;2024-03-17T05:42:14;980.3;;;4.8;73.4
68873;BME280;55907;50.806;12.882;2024-03-17T05:45:14;980.3;;;4.8;73.3
68873;BME280;55907;50.806;12.882;2024-03-17T05:48:15;980.4;;;4.8;73.6
68873;BME280;55907;50.806;12.882;2024-03-17T05:51:16;980.5;;;4.9;73.6
68873;BME280;55907;50.806;12.882;2024-03-17T05:54:17;980.4;;;4.9;73.9
68873;BME280;55907;50.806;12.882;2024-03-17T05:57:18;980.5;;;4.9;73.8
68873;BME280;55907;50.806;12.882;2024-03-17T06:00:19;980.6;;;5.0;74.1
68873;BME280;55907;50.806;12.882;2024-03-17T06:03:19;980.6;;;5.0;74.2
68873;BME280;55907;50.806;12.882;2024-03-17T06:06:20;980.5;;;5.0;73.9
68873;BME280;55907;50.806;12.882;2024-03-17T06:09:21;980.6;;;5.1;73.8
68873;BME280;55907;50.806;12.882;2024-03-17T06:12:22;980.6;;;5.1;73.5
68873;BME280;55907;50.806;12.882;2024-03-17T06:15:23;980.5;;;5.2;73.4
68873;BME280;55907;50.806;12.882;2024-03-17T06:18:23;980.5;;;5.3;73.0
68873;BME280;55907;50.806;12.882;2024-03-17T06:21:24;980.5;;;5.3;73.5
68873;BME280;55907;50.806;12.882;2024-03-17T06:24:25;980.5;;;5.3;73.1
68873;BME280;55907;50.806;12.882;2024-03-17T06:27:26;980.6;;;5.4;72.3
68873;BME280;55907;50.806;12.882;2024-03-17T06:30:26;980.6;;;5.4;72.4
68873;BME280;55907;50.806;12.882;2024-03-17T06:33:27;980.7;;;5.5;72.8
68873;BME280;55907;50.806;12.882;2024-03-17T06:36:28;980.7;;;5.6;73.1
68873;BME280;55907;50.806;12.882;2024-03-17T06:39:29;980.7;;;5.7;unknown
68873;BME280;55907;50.806;12.882;2024-03-17T06:45:30;980.8;;;5.7;72.2
68873;BME280;55907;50.806;12.882;2024-03-17T06:48:31;980.8;;;5.8;72.0
68873;BME280;55907;50.806;12.882;2024-03-17T06:51:32;980.8;;;5.9;71.7
68873;BME280;55907;50.806;12.882;2024-03-17T06:54:33;980.8;;;5.9;71.8
68873;BME280;55907;50.806;12.882;2024-03-17T06:57:33;980.9;;;5.9;71.2
68873;BME280;55907;50.806;12.882;2024-03-17T07:00:34;980.9;;;6.0;72.1
68873;BME280;55907;50.806;12.882;2024-03-17T07:03:35;981.0;;;6.1;71.3
68873;BME280;55907;50.806;12.882;2024-03-17T07:06:36;981.0;;;6.2;70.9
68873;BME280;55907;50.806;12.882;2024-03-17T07:09:37;981.0;;;6.2;71.2
68873;BME280;55907;50.806;12.882;2024-03-17T07:12:38;981.0;;;6.3;71.3
68873;BME280;55907;50.806;12.882;2024-03-17T07:15:38;980.9;;;6.4;70.4
68873;BME280;55907;50.806;12.882;2024-03-17T07:18:39;981.0;;;6.6;70.0
68873;BME280;55907;50.806;12.882;2024-03-17T07:21:40;981.0;;;6.8;69.8
68873;BME280;55907;50.806;12.882;2024-03-17T07:24:41;981.0;;;7.0;69.3
68873;BME280;55907;50.806;12.882;2024-03-17T07:27:41;981.1;;;7.2;69.2
68873;BME280;55907;50.806;12.882;2024-03-17T07:30:46;981.1;;;7.4;67.5
68873;BME280;55907;50.806;12.882;2024-03-17T07:33:43;981.1;;;7.4;66.9
68873;BME280;55907;50.806;12.882;2024-03-17T07:36:45;981.1;;;7.4;66.8
68873;BME280;55907;50.806;12.882;2024-03-17T07:39:44;981.1;;;7.6;67.8
68873;BME280;55907;50.806;12.882;2024-03-17T07:42:45;981.2;;;7.7;66.9
68873;BME280;55907;50.806;12.882;2024-03-17T07:45:46;981.1;;;7.9;66.8
68873;BME280;55907;50.806;12.882;2024-03-17T07:48:47;981.2;;;8.1;65.8
68873;BME280;55907;50.806;12.882;2024-03-17T07:51:48;981.2;;;8.1;65.2
68873;BME280;55907;50.806;12.882;2024-03-17T07:54:48;981.2;;;7.9;64.4
68873;BME280;55907;50.806;12.882;2024-03-17T07:57:49;981.3;;;8.0;64.9
68873;BME280;55907;50.806;12.882;2024-03-17T08:00:50;981.2;;;8.2;65.0
68873;BME280;55907;50.806;12.882;2024-03-17T08:03:51;981.2;;;8.3;64.6
68873;BME280;55907;50.806;12.882;2024-03-17T08:06:51;981.1;;;8.5;64.3
68873;BME280;55907;50.806;12.882;2024-03-17T08:09:52;981.1;;;8.8;64.1
68873;BME280;55907;50.806;12.882;2024-03-17T08:12:53;981.1;;;9.0;63.9
68873;BME280;55907;50.806;12.882;2024-03-17T08:15:56;981.1;;;9.1;63.4
68873;BME280;55907;50.806;12.882;2024-03-17T08:18:55;981.1;;;9.2;62.7
68873;BME280;55907;50.806;12.882;2024-03-17T08:21:55;981.1;;;9.4;62.0
68873;BME280;55907;50.806;12.882;2024-03-17T08:24:56;981.1;;;9.5;60.9
68873;BME280;55907;50.806;12.882;2024-03-17T08:27:57;981.1;;;9.7;60.1
68873;BME280;55907;50.806;12.882;2024-03-17T08:30:59;981.1;;;9.9;60.0
68873;BME280;55907;50.806;12.882;2024-03-17T08:33:58;981.1;;;10.1;58.8
68873;BME280;55907;50.806;12.882;2024-03-17T08:36:59;981.0;;;10.4;58.5
68873;BME280;55907;50.806;12.882;2024-03-17T08:40:00;981.0;;;10.5;57.8
68873;BME280;55907;50.806;12.882;2024-03-17T08:43:01;981.0;;;10.9;56.9
68873;BME280;55907;50.806;12.882;2024-03-17T08:46:03;980.9;;;11.2;56.7
68873;BME280;55907;50.806;12.882;2024-03-17T08:49:02;980.9;;;11.4;55.9
68873;BME280;55907;50.806;12.882;2024-03-17T08:52:03;980.9;;;11.8;55.4
68873;BME280;55907;50.806;12.882;2024-03-17T08:55:04;980.8;;;12.0;54.5
68873;BME280;55907;50.806;12.882;2024-03-17T08:58:04;980.8;;;12.0;53.6
68873;BME280;55907;50.806;12.882;2024-03-17T09:01:06;980.8;;;12.3;52.8
68873;BME280;55907;50.806;12.882;2024-03-17T09:04:06;980.7;;;13.2;50.8
68873;BME280;55907;50.806;12.882;2024-03-17T09:07:07;980.7;;;14.3;47.9
68873;BME280;55907;50.806;12.882;2024-03-17T09:13:13;980.6;;;15.6;44.0
68873;BME280;55907;50.806;12.882;2024-03-17T09:16:09;980.6;;;15.6;43.7
68873;BME280;55907;50.806;12.882;2024-03-17T09:19:09;980.6;;;15.4;44.7
68873;BME280;55907;50.806;12.882;2024-03-17T09:22:10;980.6;;;15.3;45.1
68873;BME280;55907;50.806;12.882;2024-03-17T09:25:11;980.6;;;15.5;44.1
68873;BME280;55907;50.806;12.882;2024-03-17T09:28:12;980.6;;;15.5;42.9
68873;BME280;55907;50.806;12.882;2024-03-17T09:31:12;980.5;;;15.9;42.9
68873;BME280;55907;50.806;12.882;2024-03-17T09:37:14;980.5;;;17.5;37.7
68873;BME280;55907;50.806;12.882;2024-03-17T09:40:15;980.5;;;18.4;37.3
68873;BME280;55907;50.806;12.882;2024-03-17T09:43:15;980.5;;;18.6;35.8
68873;BME280;55907;50.806;12.882;2024-03-17T09:46:17;980.5;;;19.3;36.2
68873;BME280;55907;50.806;12.882;2024-03-17T09:49:17;980.5;;;18.5;34.1
68873;BME280;55907;50.806;12.882;2024-03-17T09:52:20;980.5;;;18.3;34.2
68873;BME280;55907;50.806;12.882;2024-03-17T09:55:18;980.4;;;17.6;34.7
68873;BME280;55907;50.806;12.882;2024-03-17T09:58:19;980.5;;;16.3;37.0
68873;BME280;55907;50.806;12.882;2024-03-17T10:01:19;980.5;;;15.1;38.9
68873;BME280;55907;50.806;12.882;2024-03-17T10:10:22;980.5;;;14.7;39.0
68873;BME280;55907;50.806;12.882;2024-03-17T10:13:22;980.5;;;15.7;38.0
68873;BME280;55907;50.806;12.882;2024-03-17T10:16:25;980.5;;;16.5;37.9
68873;BME280;55907;50.806;12.882;2024-03-17T10:19:24;980.4;;;17.7;35.4
68873;BME280;55907;50.806;12.882;2024-03-17T10:25:25;980.5;;;18.9;32.0
68873;BME280;55907;50.806;12.882;2024-03-17T10:28:26;980.4;;;18.1;31.0
68873;BME280;55907;50.806;12.882;2024-03-17T10:31:27;980.4;;;18.1;32.1
68873;BME280;55907;50.806;12.882;2024-03-17T10:34:29;980.4;;;18.6;30.8
68873;BME280;55907;50.806;12.882;2024-03-17T10:37:28;980.4;;;18.5;31.6
68873;BME280;55907;50.806;12.882;2024-03-17T10:40:30;980.3;;;18.8;30.1
68873;BME280;55907;50.806;12.882;2024-03-17T10:43:29;980.3;;;18.8;29.3
68873;BME280;55907;50.806;12.882;2024-03-17T10:46:30;980.3;;;18.4;28.8
68873;BME280;55907;50.806;12.882;2024-03-17T10:49:32;980.3;;;18.6;31.1
68873;BME280;55907;50.806;12.882;2024-03-17T10:52:33;980.3;;;18.4;31.2
68873;BME280;55907;50.806;12.882;2024-03-17T10:55:38;980.2;;;18.5;30.0
68873;BME280;55907;50.806;12.882;2024-03-17T10:58:34;980.2;;;18.1;30.5
68873;BME280;55907;50.806;12.882;2024-03-17T11:01:33;980.2;;;18.6;31.6
68873;BME280;55907;50.806;12.882;2024-03-17T11:04:34;980.2;;;17.8;32.1
68873;BME280;55907;50.806;12.882;2024-03-17T11:07:35;980.2;;;17.5;31.3
68873;BME280;55907;50.806;12.882;2024-03-17T11:13:36;980.1;;;16.9;32.5
68873;BME280;55907;50.806;12.882;2024-03-17T11:16:37;980.1;;;16.4;33.0
68873;BME280;55907;50.806;12.882;2024-03-17T11:19:38;980.1;;;15.7;35.5
68873;BME280;55907;50.806;12.882;2024-03-17T11:22:41;980.1;;;15.2;36.2
68873;BME280;55907;50.806;12.882;2024-03-17T11:25:39;980.2;;;15.6;36.5
68873;BME280;55907;50.806;12.882;2024-03-17T11:28:48;980.1;;;15.9;35.4
68873;BME280;55907;50.806;12.882;2024-03-17T11:31:42;980.1;;;16.1;35.3
68873;BME280;55907;50.806;12.882;2024-03-17T11:34:41;980.0;;;16.4;35.7
68873;BME280;55907;50.806;12.882;2024-03-17T11:37:43;980.0;;;16.8;33.9
68873;BME280;55907;50.806;12.882;2024-03-17T11:40:43;980.0;;;17.1;35.4
68873;BME280;55907;50.806;12.882;2024-03-17T11:43:44;980.0;;;16.8;34.8
68873;BME280;55907;50.806;12.882;2024-03-17T11:46:45;979.9;;;16.1;33.2
68873;BME280;55907;50.806;12.882;2024-03-17T11:49:46;979.9;;;15.3;34.8
68873;BME280;55907;50.806;12.882;2024-03-17T11:52:46;979.9;;;15.0;36.2
68873;BME280;55907;50.806;12.882;2024-03-17T11:55:48;979.9;;;14.6;36.4
68873;BME280;55907;50.806;12.882;2024-03-17T11:58:47;979.9;;;14.3;37.2
68873;BME280;55907;50.806;12.882;2024-03-17T12:01:49;979.9;;;14.0;39.2
68873;BME280;55907;50.806;12.882;2024-03-17T12:07:50;980.0;;;14.0;40.6
68873;BME280;55907;50.806;12.882;2024-03-17T12:10:50;980.0;;;14.3;38.8
68873;BME280;55907;50.806;12.882;2024-03-17T12:13:51;980.0;;;14.5;38.9
68873;BME280;55907;50.806;12.882;2024-03-17T12:16:53;979.9;;;14.8;39.2
68873;BME280;55907;50.806;12.882;2024-03-17T12:19:52;979.8;;;15.0;39.4
68873;BME280;55907;50.806;12.882;2024-03-17T12:22:53;979.7;;;15.2;38.3
68873;BME280;55907;50.806;12.882;2024-03-17T12:25:54;979.6;;;15.3;36.6
68873;BME280;55907;50.806;12.882;2024-03-17T12:28:54;979.7;;;14.9;37.4
68873;BME280;55907;50.806;12.882;2024-03-17T12:34:56;979.6;;;15.0;36.4
68873;BME280;55907;50.806;12.882;2024-03-17T12:37:57;979.6;;;15.0;37.3
68873;BME280;55907;50.806;12.882;2024-03-17T12:40:57;979.6;;;15.0;37.9
68873;BME280;55907;50.806;12.882;2024-03-17T12:43:58;979.6;;;14.8;37.7
68873;BME280;55907;50.806;12.882;2024-03-17T12:47:00;979.6;;;14.7;37.8
68873;BME280;55907;50.806;12.882;2024-03-17T12:50:00;979.6;;;14.9;36.9
68873;BME280;55907;50.806;12.882;2024-03-17T12:53:00;979.6;;;14.7;37.6
68873;BME280;55907;50.806;12.882;2024-03-17T12:56:01;979.6;;;14.7;37.9
68873;BME280;55907;50.806;12.882;2024-03-17T12:59:04;979.6;;;14.7;38.6
68873;BME280;55907;50.806;12.882;2024-03-17T13:02:06;979.6;;;14.9;38.0
68873;BME280;55907;50.806;12.882;2024-03-17T13:05:05;979.5;;;15.1;38.1
68873;BME280;55907;50.806;12.882;2024-03-17T13:08:04;979.4;;;15.3;36.3
68873;BME280;55907;50.806;12.882;2024-03-17T13:11:08;979.4;;;15.1;36.6
68873;BME280;55907;50.806;12.882;2024-03-17T13:14:06;979.4;;;15.1;37.5
68873;BME280;55907;50.806;12.882;2024-03-17T13:17:06;979.4;;;14.8;37.0
68873;BME280;55907;50.806;12.882;2024-03-17T13:20:08;979.3;;;14.7;37.4
68873;BME280;55907;50.806;12.882;2024-03-17T13:23:07;979.3;;;14.7;38.3
68873;BME280;55907;50.806;12.882;2024-03-17T13:26:08;979.2;;;14.8;37.6
68873;BME280;55907;50.806;12.882;2024-03-17T13:29:09;979.3;;;14.7;38.4
68873;BME280;55907;50.806;12.882;2024-03-17T13:32:10;979.2;;;14.7;37.8
68873;BME280;55907;50.806;12.882;2024-03-17T13:35:15;979.1;;;14.4;38.9
68873;BME280;55907;50.806;12.882;2024-03-17T13:38:11;979.1;;;14.7;38.8
68873;BME280;55907;50.806;12.882;2024-03-17T13:41:12;979.2;;;14.6;38.3
68873;BME280;55907;50.806;12.882;2024-03-17T13:44:12;979.2;;;14.9;38.4
68873;BME280;55907;50.806;12.882;2024-03-17T13:50:14;979.1;;;15.2;36.1
68873;BME280;55907;50.806;12.882;2024-03-17T13:53:15;979.1;;;15.1;35.6
68873;BME280;55907;50.806;12.882;2024-03-17T13:56:16;979.0;;;15.2;36.8
68873;BME280;55907;50.806;12.882;2024-03-17T13:59:16;978.9;;;15.1;35.8
68873;BME280;55907;50.806;12.882;2024-03-17T14:05:19;978.9;;;14.7;36.5
68873;BME280;55907;50.806;12.882;2024-03-17T14:08:18;978.9;;;14.4;36.5
68873;BME280;55907;50.806;12.882;2024-03-17T14:11:19;979.0;;;14.2;37.2
68873;BME280;55907;50.806;12.882;2024-03-17T14:14:20;979.0;;;14.1;36.2
68873;BME280;55907;50.806;12.882;2024-03-17T14:17:21;978.9;;;14.0;35.7
68873;BME280;55907;50.806;12.882;2024-03-17T14:20:21;979.0;;;13.9;36.6
68873;BME280;55907;50.806;12.882;2024-03-17T14:23:22;979.0;;;13.9;36.8
68873;BME280;55907;50.806;12.882;2024-03-17T14:26:23;979.0;;;13.9;37.4
68873;BME280;55907;50.806;12.882;2024-03-17T14:29:23;979.0;;;13.9;37.9
68873;BME280;55907;50.806;12.882;2024-03-17T14:35:25;979.0;;;13.4;37.9
68873;BME280;55907;50.806;12.882;2024-03-17T14:38:26;978.9;;;13.3;38.3
68873;BME280;55907;50.806;12.882;2024-03-17T14:41:28;978.9;;;13.3;37.0
68873;BME280;55907;50.806;12.882;2024-03-17T14:44:27;979.0;;;13.1;37.1
68873;BME280;55907;50.806;12.882;2024-03-17T14:47:28;978.9;;;13.1;38.3
68873;BME280;55907;50.806;12.882;2024-03-17T14:50:29;978.9;;;13.0;37.9
68873;BME280;55907;50.806;12.882;2024-03-17T14:53:29;978.9;;;12.7;39.0
68873;BME280;55907;50.806;12.882;2024-03-17T14:56:30;978.8;;;12.5;40.0
68873;BME280;55907;50.806;12.882;2024-03-17T14:59:31;978.8;;;12.6;40.4
68873;BME280;55907;50.806;12.882;2024-03-17T15:05:32;978.7;;;12.6;40.1
68873;BME280;55907;50.806;12.882;2024-03-17T15:08:33;978.7;;;12.5;40.4
68873;BME280;55907;50.806;12.882;2024-03-17T15:11:34;978.7;;;12.5;40.7
68873;BME280;55907;50.806;12.882;2024-03-17T15:14:35;978.7;;;12.5;41.4
68873;BME280;55907;50.806;12.882;2024-03-17T15:17:36;978.7;;;12.5;42.7
68873;BME280;55907;50.806;12.882;2024-03-17T15:20:36;978.7;;;12.3;40.3
68873;BME280;55907;50.806;12.882;2024-03-17T15:23:37;978.6;;;12.1;40.5
68873;BME280;55907;50.806;12.882;2024-03-17T15:26:37;978.6;;;11.9;40.6
68873;BME280;55907;50.806;12.882;2024-03-17T15:29:39;978.5;;;11.9;41.9
68873;BME280;55907;50.806;12.882;2024-03-17T15:32:39;978.5;;;12.0;41.7
68873;BME280;55907;50.806;12.882;2024-03-17T15:35:40;978.5;;;11.9;40.1
68873;BME280;55907;50.806;12.882;2024-03-17T15:38:40;978.5;;;11.7;40.4
68873;BME280;55907;50.806;12.882;2024-03-17T15:41:41;978.4;;;11.6;41.1
68873;BME280;55907;50.806;12.882;2024-03-17T15:44:42;978.5;;;11.5;40.7
68873;BME280;55907;50.806;12.882;2024-03-17T15:47:43;978.5;;;11.5;41.7
68873;BME280;55907;50.806;12.882;2024-03-17T15:50:44;978.5;;;11.4;41.1
68873;BME280;55907;50.806;12.882;2024-03-17T15:53:44;978.5;;;11.2;41.2
68873;BME280;55907;50.806;12.882;2024-03-17T15:56:45;978.5;;;11.2;41.7
68873;BME280;55907;50.806;12.882;2024-03-17T15:59:46;978.5;;;11.0;41.7
68873;BME280;55907;50.806;12.882;2024-03-17T16:02:46;978.5;;;10.9;41.4
68873;BME280;55907;50.806;12.882;2024-03-17T16:05:48;978.5;;;10.8;41.4
68873;BME280;55907;50.806;12.882;2024-03-17T16:08:50;978.5;;;10.7;41.6
68873;BME280;55907;50.806;12.882;2024-03-17T16:11:49;978.5;;;10.6;42.1
68873;BME280;55907;50.806;12.882;2024-03-17T16:14:50;978.5;;;10.5;42.4
68873;BME280;55907;50.806;12.882;2024-03-17T16:17:50;978.5;;;10.5;43.1
68873;BME280;55907;50.806;12.882;2024-03-17T16:23:55;978.5;;;10.3;44.7
68873;BME280;55907;50.806;12.882;2024-03-17T16:26:53;978.5;;;10.3;44.9
68873;BME280;55907;50.806;12.882;2024-03-17T16:29:53;978.5;;;10.2;45.4
68873;BME280;55907;50.806;12.882;2024-03-17T16:32:54;978.5;;;10.2;45.4
68873;BME280;55907;50.806;12.882;2024-03-17T16:35:55;978.4;;;10.1;46.2
68873;BME280;55907;50.806;12.882;2024-03-17T16:38:55;978.5;;;10.0;46.3
68873;BME280;55907;50.806;12.882;2024-03-17T16:41:56;978.5;;;9.9;46.6
68873;BME280;55907;50.806;12.882;2024-03-17T16:45:01;978.5;;;9.9;46.9
68873;BME280;55907;50.806;12.882;2024-03-17T16:47:58;978.5;;;9.8;47.1
68873;BME280;55907;50.806;12.882;2024-03-17T16:50:59;978.6;;;9.7;47.8
68873;BME280;55907;50.806;12.882;2024-03-17T16:53:59;978.6;;;9.7;48.5
68873;BME280;55907;50.806;12.882;2024-03-17T16:57:00;978.6;;;9.7;48.7
68873;BME280;55907;50.806;12.882;2024-03-17T17:00:01;978.5;;;9.6;49.0
68873;BME280;55907;50.806;12.882;2024-03-17T17:03:02;978.5;;;9.5;49.3
68873;BME280;55907;50.806;12.882;2024-03-17T17:06:03;978.5;;;9.5;49.5
68873;BME280;55907;50.806;12.882;2024-03-17T17:09:03;978.5;;;9.4;50.1
68873;BME280;55907;50.806;12.882;2024-03-17T17:12:05;978.5;;;9.3;50.7
68873;BME280;55907;50.806;12.882;2024-03-17T17:15:05;978.5;;;9.3;50.5
68873;BME280;55907;50.806;12.882;2024-03-17T17:18:06;978.5;;;9.2;51.1
68873;BME280;55907;50.806;12.882;2024-03-17T17:21:06;978.5;;;9.2;51.2
68873;BME280;55907;50.806;12.882;2024-03-17T17:24:15;978.5;;;9.1;51.3
68873;BME280;55907;50.806;12.882;2024-03-17T17:27:08;978.5;;;9.0;51.7
68873;BME280;55907;50.806;12.882;2024-03-17T17:30:09;978.5;;;9.0;51.5
68873;BME280;55907;50.806;12.882;2024-03-17T17:33:09;978.4;;;8.9;51.5
68873;BME280;55907;50.806;12.882;2024-03-17T17:36:10;978.4;;;8.9;51.7
68873;BME280;55907;50.806;12.882;2024-03-17T17:39:11;978.4;;;8.8;51.5
68873;BME280;55907;50.806;12.882;2024-03-17T17:42:12;978.4;;;8.7;52.1
68873;BME280;55907;50.806;12.882;2024-03-17T17:45:13;978.4;;;8.7;51.7
68873;BME280;55907;50.806;12.882;2024-03-17T17:48:13;978.4;;;8.6;51.9
68873;BME280;55907;50.806;12.882;2024-03-17T17:51:15;978.4;;;8.5;52.9
68873;BME280;55907;50.806;12.882;2024-03-17T17:54:15;978.4;;;8.5;52.7
68873;BME280;55907;50.806;12.882;2024-03-17T17:57:15;978.5;;;8.4;53.1
68873;BME280;55907;50.806;12.882;2024-03-17T18:00:17;978.5;;;8.3;53.7
68873;BME280;55907;50.806;12.882;2024-03-17T18:03:17;978.5;;;8.3;54.4
68873;BME280;55907;50.806;12.882;2024-03-17T18:06:18;978.5;;;8.2;56.0
68873;BME280;55907;50.806;12.882;2024-03-17T18:09:19;978.5;;;8.3;55.0